createdAt,value
2023-03-01T00:01:26.700Z,49.37
2023-03-01T00:03:56.220Z,60.60
2023-03-01T00:06:24.958Z,62.47
2023-03-01T00:08:53.065Z,59.63
2023-03-01T00:11:26.522Z,57.53
2023-03-01T00:13:56.742Z,59.80
2023-03-01T00:16:27.808Z,58.87
2023-03-01T00:18:56.910Z,57.93
2023-03-01T00:21:24.923Z,55.80
2023-03-01T00:23:53.103Z,51.80
2023-03-01T00:26:21.949Z,47.57
2023-03-01T00:28:50.039Z,42.10
2023-03-01T00:31:20.191Z,45.33
2023-03-01T00:33:48.541Z,44.43
2023-03-01T00:36:17.075Z,36.30
2023-03-01T00:38:46.982Z,33.20
2023-03-01T00:41:17.003Z,33.23
2023-03-01T00:43:45.660Z,35.23
2023-03-01T00:46:16.159Z,35.60
2023-03-01T00:48:45.605Z,37.07
2023-03-01T00:51:17.350Z,39.00
2023-03-01T00:53:46.055Z,38.53
2023-03-01T00:56:15.726Z,38.27
2023-03-01T00:58:45.265Z,38.30
2023-03-01T01:01:18.732Z,36.73
2023-03-01T01:03:49.618Z,38.27
2023-03-01T01:06:26.672Z,34.87
2023-03-01T01:08:55.850Z,34.13
2023-03-01T01:11:25.559Z,32.00
2023-03-01T01:13:54.480Z,32.90
2023-03-01T01:16:23.492Z,34.73
2023-03-01T01:18:51.953Z,33.13
2023-03-01T01:21:22.451Z,34.33
2023-03-01T01:23:50.707Z,35.03
2023-03-01T01:26:23.781Z,34.17
2023-03-01T01:28:52.078Z,33.70
2023-03-01T01:31:20.279Z,34.07
2023-03-01T01:33:48.326Z,33.70
2023-03-01T01:36:15.812Z,34.37
2023-03-01T01:38:43.838Z,33.93
2023-03-01T01:41:13.196Z,34.47
2023-03-01T01:43:52.905Z,35.13
2023-03-01T01:46:33.197Z,33.03
2023-03-01T01:49:11.225Z,35.23
2023-03-01T01:51:43.265Z,37.90
2023-03-01T01:54:19.756Z,36.73
2023-03-01T01:56:52.174Z,37.40
2023-03-01T01:59:25.946Z,38.77
2023-03-01T02:01:54.181Z,38.87
2023-03-01T02:04:23.104Z,38.53
2023-03-01T02:07:03.971Z,41.00
2023-03-01T02:09:33.380Z,38.70
2023-03-01T02:12:05.466Z,39.17
2023-03-01T02:14:33.743Z,39.20
2023-03-01T02:17:01.175Z,38.27
2023-03-01T02:19:47.484Z,39.33
2023-03-01T02:22:25.242Z,40.73
2023-03-01T02:25:05.789Z,39.70
2023-03-01T02:27:57.902Z,40.27
2023-03-01T02:30:26.864Z,37.37
2023-03-01T02:33:04.146Z,37.80
2023-03-01T02:35:39.343Z,36.67
2023-03-01T02:38:09.918Z,36.63
2023-03-01T02:40:40.614Z,37.93
2023-03-01T02:43:11.512Z,38.33
2023-03-01T02:45:49.267Z,37.87
2023-03-01T02:48:16.627Z,35.20
2023-03-01T02:51:04.630Z,36.20
2023-03-01T02:53:47.964Z,33.60
2023-03-01T02:56:16.514Z,34.27
2023-03-01T02:58:52.304Z,32.10
2023-03-01T03:01:21.447Z,34.40
2023-03-01T03:03:48.930Z,35.43
2023-03-01T03:06:17.137Z,35.00
2023-03-01T03:08:45.446Z,33.10
2023-03-01T03:11:13.059Z,31.50
2023-03-01T03:13:49.315Z,31.43
2023-03-01T03:16:18.825Z,31.83
2023-03-01T03:18:46.531Z,32.30
2023-03-01T03:21:15.144Z,31.37
2023-03-01T03:23:42.571Z,30.13
2023-03-01T03:26:16.278Z,31.13
2023-03-01T03:28:44.248Z,30.67
2023-03-01T03:31:12.280Z,30.33
2023-03-01T03:33:39.978Z,32.33
2023-03-01T03:36:08.322Z,30.03
2023-03-01T03:38:36.029Z,29.97
2023-03-01T03:41:08.460Z,31.27
2023-03-01T03:43:38.359Z,29.50
2023-03-01T03:46:06.943Z,28.47
2023-03-01T03:48:36.323Z,28.03
2023-03-01T03:51:06.869Z,27.53
2023-03-01T03:53:35.051Z,28.23
2023-03-01T03:56:02.807Z,29.07
2023-03-01T03:58:30.488Z,29.23
2023-03-01T04:00:59.071Z,28.73
2023-03-01T04:03:27.909Z,27.37
2023-03-01T04:05:56.133Z,29.27
2023-03-01T04:08:24.958Z,28.27
2023-03-01T04:10:57.671Z,29.07
2023-03-01T04:13:26.799Z,28.60
2023-03-01T04:15:56.017Z,30.70
2023-03-01T04:18:26.274Z,29.80
2023-03-01T04:20:56.537Z,31.13
2023-03-01T04:23:24.438Z,30.73
2023-03-01T04:25:56.587Z,30.17
2023-03-01T04:28:35.824Z,31.77
2023-03-01T04:31:17.317Z,32.23
2023-03-01T04:33:49.962Z,32.93
2023-03-01T04:36:18.941Z,31.97
2023-03-01T04:38:49.830Z,29.87
2023-03-01T04:41:20.262Z,27.67
2023-03-01T04:43:47.705Z,30.87
2023-03-01T04:46:19.038Z,28.40
2023-03-01T04:48:48.309Z,28.63
2023-03-01T04:51:17.378Z,27.90
2023-03-01T04:53:45.660Z,27.83
2023-03-01T04:56:15.044Z,29.47
2023-03-01T04:58:43.231Z,29.10
2023-03-01T05:01:20.947Z,29.53
2023-03-01T05:03:50.747Z,29.33
2023-03-01T05:06:20.681Z,28.47
2023-03-01T05:08:48.872Z,29.40
2023-03-01T05:11:16.450Z,30.30
2023-03-01T05:13:44.434Z,27.60
2023-03-01T05:16:13.252Z,27.43
2023-03-01T05:18:42.166Z,29.63
2023-03-01T05:21:13.209Z,28.63
2023-03-01T05:23:41.026Z,28.57
2023-03-01T05:26:16.193Z,27.83
2023-03-01T05:28:50.357Z,29.40
2023-03-01T05:31:18.397Z,31.13
2023-03-01T05:33:46.594Z,31.67
2023-03-01T05:36:14.311Z,30.77
2023-03-01T05:38:42.129Z,30.00
2023-03-01T05:41:17.281Z,27.73
2023-03-01T05:43:46.265Z,30.40
2023-03-01T05:46:16.452Z,31.37
2023-03-01T05:48:45.435Z,28.77
2023-03-01T05:51:13.275Z,29.23
2023-03-01T05:53:40.832Z,28.43
2023-03-01T05:56:09.269Z,27.30
2023-03-01T05:58:37.044Z,28.23
2023-03-01T06:01:04.877Z,27.87
2023-03-01T06:03:32.682Z,28.03
2023-03-01T06:06:01.089Z,28.50
2023-03-01T06:08:28.977Z,26.67
2023-03-01T06:10:57.039Z,28.77
2023-03-01T06:13:24.979Z,27.87
2023-03-01T06:15:53.459Z,28.33
2023-03-01T06:18:21.264Z,28.50
2023-03-01T06:20:55.098Z,27.67
2023-03-01T06:23:23.129Z,33.03
2023-03-01T06:25:51.422Z,30.50
2023-03-01T06:28:19.210Z,30.33
2023-03-01T06:30:47.594Z,32.40
2023-03-01T06:33:15.648Z,29.90
2023-03-01T06:35:43.746Z,29.53
2023-03-01T06:38:11.693Z,27.27
2023-03-01T06:40:39.858Z,25.93
2023-03-01T06:43:08.687Z,26.43
2023-03-01T06:45:37.027Z,26.60
2023-03-01T06:48:06.085Z,25.30
2023-03-01T06:50:34.511Z,24.57
2023-03-01T06:53:02.602Z,26.67
2023-03-01T06:55:30.700Z,28.23
2023-03-01T06:58:02.095Z,25.53
2023-03-01T07:00:30.325Z,25.80
2023-03-01T07:03:03.073Z,25.83
2023-03-01T07:05:31.839Z,24.53
2023-03-01T07:07:59.471Z,24.50
2023-03-01T07:10:27.273Z,25.77
2023-03-01T07:12:58.765Z,25.13
2023-03-01T07:15:27.173Z,26.23
2023-03-01T07:17:55.018Z,26.10
2023-03-01T07:20:25.603Z,22.73
2023-03-01T07:22:53.749Z,27.10
2023-03-01T07:25:21.830Z,30.03
2023-03-01T07:27:53.455Z,25.73
2023-03-01T07:30:21.929Z,26.20
2023-03-01T07:32:50.022Z,25.17
2023-03-01T07:35:17.996Z,24.47
2023-03-01T07:37:45.652Z,25.33
2023-03-01T07:40:13.774Z,23.80
2023-03-01T07:42:41.291Z,24.97
2023-03-01T07:45:09.375Z,22.27
2023-03-01T07:47:36.996Z,31.40
2023-03-01T07:50:05.345Z,23.00
2023-03-01T07:52:33.223Z,50.80
2023-03-01T07:55:01.121Z,51.27
2023-03-01T07:57:28.722Z,32.60
2023-03-01T07:59:56.600Z,22.90
2023-03-01T08:02:24.123Z,21.73
2023-03-01T08:04:52.048Z,22.77
2023-03-01T08:07:19.635Z,20.73
2023-03-01T08:09:47.524Z,21.77
2023-03-01T08:12:17.334Z,21.87
2023-03-01T08:14:45.352Z,21.23
2023-03-01T08:17:15.499Z,20.87
2023-03-01T08:19:44.121Z,19.93
2023-03-01T08:22:11.784Z,21.40
2023-03-01T08:24:39.785Z,24.50
2023-03-01T08:27:07.139Z,21.57
2023-03-01T08:29:35.355Z,20.40
2023-03-01T08:32:02.762Z,27.90
2023-03-01T08:34:32.357Z,25.40
2023-03-01T08:37:00.154Z,28.47
2023-03-01T08:39:28.147Z,22.23
2023-03-01T08:41:55.998Z,18.37
2023-03-01T08:44:23.986Z,21.43
2023-03-01T08:46:54.176Z,23.03
2023-03-01T08:49:22.465Z,23.27
2023-03-01T08:51:49.980Z,17.23
2023-03-01T08:54:22.581Z,18.40
2023-03-01T08:56:50.820Z,16.37
2023-03-01T08:59:19.401Z,16.17
2023-03-01T09:01:46.776Z,15.23
2023-03-01T09:04:15.968Z,13.82
2023-03-01T09:06:43.637Z,15.38
2023-03-01T09:09:17.185Z,16.45
2023-03-01T09:11:51.432Z,15.35
2023-03-01T09:14:19.075Z,18.38
2023-03-01T09:16:46.564Z,16.35
2023-03-01T09:19:14.964Z,17.67
2023-03-01T09:21:42.429Z,18.58
2023-03-01T09:24:16.250Z,16.67
2023-03-01T09:26:48.081Z,15.05
2023-03-01T09:29:17.334Z,18.45
2023-03-01T09:31:44.607Z,18.15
2023-03-01T09:34:12.211Z,17.25
2023-03-01T09:36:39.367Z,17.38
2023-03-01T09:39:07.066Z,16.52
2023-03-01T09:41:43.430Z,14.50
2023-03-01T09:44:19.981Z,19.55
2023-03-01T09:46:47.628Z,17.55
2023-03-01T09:49:26.168Z,18.17
2023-03-01T09:52:01.936Z,18.58
2023-03-01T09:54:30.092Z,20.85
2023-03-01T09:57:16.070Z,18.45
2023-03-01T10:00:05.477Z,19.15
2023-03-01T10:02:50.955Z,16.73
2023-03-01T10:05:56.254Z,18.52
2023-03-01T10:08:31.022Z,21.75
2023-03-01T10:11:00.108Z,18.60
2023-03-01T10:13:36.690Z,18.15
2023-03-01T10:16:15.799Z,19.80
2023-03-01T10:18:47.412Z,18.83
2023-03-01T10:21:18.760Z,16.75
2023-03-01T10:23:46.847Z,16.20
2023-03-01T10:26:39.061Z,15.20
2023-03-01T10:29:08.906Z,17.67
2023-03-01T10:31:44.793Z,15.73
2023-03-01T10:34:19.445Z,17.70
2023-03-01T10:36:53.684Z,22.17
2023-03-01T10:39:24.252Z,17.73
2023-03-01T10:41:59.868Z,15.63
2023-03-01T10:44:47.833Z,19.20
2023-03-01T10:47:15.659Z,19.10
2023-03-01T10:49:56.638Z,14.77
2023-03-01T10:52:34.439Z,12.38
2023-03-01T10:55:03.953Z,12.65
2023-03-01T10:57:39.413Z,13.15
2023-03-01T11:00:20.557Z,13.85
2023-03-01T11:03:04.492Z,13.95
2023-03-01T11:05:34.686Z,15.23
2023-03-01T11:08:04.410Z,13.40
2023-03-01T11:10:34.931Z,10.52
2023-03-01T11:13:16.286Z,13.52
2023-03-01T11:15:44.735Z,13.23
2023-03-01T11:18:33.920Z,11.90
2023-03-01T11:21:06.684Z,11.48
2023-03-01T11:23:34.506Z,10.65
2023-03-01T11:26:10.716Z,13.02
2023-03-01T11:28:43.090Z,10.95
2023-03-01T11:31:15.965Z,10.95
2023-03-01T11:34:29.286Z,11.52
2023-03-01T11:37:03.214Z,10.48
2023-03-01T11:40:01.060Z,12.38
2023-03-01T11:43:03.433Z,13.25
2023-03-01T11:45:59.438Z,14.10
2023-03-01T11:48:49.873Z,8.73
2023-03-01T11:51:49.011Z,8.23
2023-03-01T11:54:29.428Z,9.05
2023-03-01T11:57:15.640Z,8.85
2023-03-01T11:59:53.734Z,9.60
2023-03-01T12:02:55.508Z,9.48
2023-03-01T12:05:53.892Z,8.65
2023-03-01T12:08:27.343Z,10.18
2023-03-01T12:11:25.276Z,9.98
2023-03-01T12:14:14.314Z,9.48
2023-03-01T12:17:00.471Z,8.73
2023-03-01T12:19:53.584Z,8.63
2023-03-01T12:22:32.724Z,10.80
2023-03-01T12:25:04.319Z,11.30
2023-03-01T12:27:46.375Z,10.32
2023-03-01T12:30:38.498Z,11.40
2023-03-01T12:33:22.834Z,10.57
2023-03-01T12:36:01.315Z,12.85
2023-03-01T12:38:43.901Z,11.20
2023-03-01T12:42:02.390Z,10.70
2023-03-01T12:44:49.334Z,9.55
2023-03-01T12:47:25.120Z,9.65
2023-03-01T12:50:24.828Z,16.35
2023-03-01T12:52:59.716Z,11.30
2023-03-01T12:55:38.677Z,11.48
2023-03-01T12:58:40.369Z,18.08
2023-03-01T13:01:44.208Z,12.38
2023-03-01T13:04:46.010Z,12.80
2023-03-01T13:07:23.897Z,12.65
2023-03-01T13:10:10.029Z,14.38
2023-03-01T13:12:49.585Z,8.52
2023-03-01T13:15:23.407Z,12.52
2023-03-01T13:17:56.500Z,11.30
2023-03-01T13:20:47.623Z,10.95
2023-03-01T13:23:23.778Z,8.45
2023-03-01T13:26:00.389Z,8.13
2023-03-01T13:28:36.883Z,12.63
2023-03-01T13:31:06.753Z,13.40
2023-03-01T13:33:37.498Z,14.07
2023-03-01T13:36:08.187Z,8.95
2023-03-01T13:38:38.190Z,9.52
2023-03-01T13:41:06.901Z,9.35
2023-03-01T13:43:37.444Z,10.55
2023-03-01T13:46:31.261Z,12.93
2023-03-01T13:48:58.734Z,10.60
2023-03-01T13:51:29.101Z,11.13
2023-03-01T13:53:58.886Z,16.52
2023-03-01T13:56:34.364Z,10.48
2023-03-01T13:59:06.927Z,12.63
2023-03-01T14:01:37.410Z,14.75
2023-03-01T14:04:27.227Z,20.48
2023-03-01T14:07:13.827Z,10.77
2023-03-01T14:09:43.939Z,10.32
2023-03-01T14:12:31.395Z,10.88
2023-03-01T14:14:59.042Z,11.27
2023-03-01T14:17:34.599Z,12.85
2023-03-01T14:20:10.732Z,11.43
2023-03-01T14:22:42.081Z,10.77
2023-03-01T14:25:31.127Z,11.68
2023-03-01T14:28:05.917Z,13.35
2023-03-01T14:30:42.152Z,9.32
2023-03-01T14:33:24.354Z,9.75
2023-03-01T14:36:00.902Z,11.50
2023-03-01T14:38:46.656Z,12.63
2023-03-01T14:41:17.080Z,13.70
2023-03-01T14:44:16.965Z,11.68
2023-03-01T14:46:46.444Z,11.35
2023-03-01T14:49:21.876Z,11.52
2023-03-01T14:52:03.257Z,10.68
2023-03-01T14:54:46.334Z,10.88
2023-03-01T14:57:27.447Z,12.98
2023-03-01T14:59:59.744Z,13.88
2023-03-01T15:02:29.271Z,15.13
2023-03-01T15:05:07.189Z,18.77
2023-03-01T15:07:42.149Z,26.23
2023-03-01T15:10:26.857Z,17.75
2023-03-01T15:12:54.148Z,25.45
2023-03-01T15:15:32.328Z,24.58
2023-03-01T15:18:21.546Z,21.30
2023-03-01T15:20:50.879Z,29.05
2023-03-01T15:23:30.998Z,25.73
2023-03-01T15:25:59.698Z,22.57
2023-03-01T15:28:34.943Z,21.67
2023-03-01T15:31:13.611Z,24.43
2023-03-01T15:33:48.123Z,25.33
2023-03-01T15:36:40.855Z,24.60
2023-03-01T15:39:38.729Z,19.63
2023-03-01T15:42:43.596Z,23.13
2023-03-01T15:45:17.950Z,34.80
2023-03-01T15:48:06.892Z,30.00
2023-03-01T15:50:36.930Z,34.97
2023-03-01T15:53:19.329Z,34.30
2023-03-01T15:55:49.845Z,33.43
2023-03-01T15:58:21.790Z,31.53
2023-03-01T16:01:00.876Z,35.40
2023-03-01T16:03:30.260Z,35.80
2023-03-01T16:05:57.980Z,35.77
2023-03-01T16:08:25.814Z,36.00
2023-03-01T16:10:55.483Z,36.90
2023-03-01T16:13:23.399Z,28.77
2023-03-01T16:15:50.776Z,31.93
2023-03-01T16:18:18.488Z,26.70
2023-03-01T16:20:46.232Z,23.87
2023-03-01T16:23:15.424Z,21.37
2023-03-01T16:25:42.726Z,21.93
2023-03-01T16:28:11.223Z,19.80
2023-03-01T16:30:40.829Z,18.10
2023-03-01T16:33:26.268Z,18.43
2023-03-01T16:35:57.888Z,17.27
2023-03-01T16:38:25.575Z,15.10
2023-03-01T16:40:53.634Z,15.23
2023-03-01T16:43:21.593Z,14.27
2023-03-01T16:45:49.112Z,13.80
2023-03-01T16:48:16.919Z,13.47
2023-03-01T16:50:44.267Z,13.63
2023-03-01T16:53:12.193Z,14.47
2023-03-01T16:55:46.318Z,13.77
2023-03-01T16:58:16.593Z,13.23
2023-03-01T17:00:43.924Z,14.50
2023-03-01T17:03:12.189Z,13.70
2023-03-01T17:05:41.784Z,15.83
2023-03-01T17:08:09.357Z,15.57
2023-03-01T17:10:36.712Z,16.03
2023-03-01T17:13:04.787Z,14.13
2023-03-01T17:15:32.215Z,15.43
2023-03-01T17:17:59.861Z,16.00
2023-03-01T17:20:27.147Z,14.70
2023-03-01T17:22:54.952Z,15.17
2023-03-01T17:25:22.390Z,15.10
2023-03-01T17:27:50.146Z,12.80
2023-03-01T17:30:18.141Z,13.20
2023-03-01T17:32:46.491Z,13.17
2023-03-01T17:35:14.118Z,12.07
2023-03-01T17:37:46.596Z,13.40
2023-03-01T17:40:14.384Z,12.03
2023-03-01T17:42:42.273Z,10.97
2023-03-01T17:45:09.997Z,11.77
2023-03-01T17:47:37.971Z,11.47
2023-03-01T17:50:06.771Z,10.90
2023-03-01T17:52:34.768Z,11.60
2023-03-01T17:55:02.450Z,12.17
2023-03-01T17:57:31.067Z,10.97
2023-03-01T17:59:59.274Z,11.50
2023-03-01T18:02:27.328Z,10.00
2023-03-01T18:04:59.414Z,12.33
2023-03-01T18:07:28.972Z,9.97
2023-03-01T18:09:56.938Z,12.70
2023-03-01T18:12:24.969Z,12.83
2023-03-01T18:14:54.857Z,14.27
2023-03-01T18:17:25.806Z,13.50
2023-03-01T18:19:56.392Z,12.53
2023-03-01T18:22:25.393Z,12.47
2023-03-01T18:24:53.634Z,13.13
2023-03-01T18:27:22.269Z,12.73
2023-03-01T18:29:50.345Z,12.37
2023-03-01T18:32:19.142Z,14.33
2023-03-01T18:34:48.509Z,13.87
2023-03-01T18:37:18.412Z,14.33
2023-03-01T18:39:46.580Z,12.80
2023-03-01T18:42:16.573Z,13.03
2023-03-01T18:44:48.367Z,15.73
2023-03-01T18:47:17.264Z,16.03
2023-03-01T18:49:45.039Z,27.43
2023-03-01T18:52:13.261Z,26.07
2023-03-01T18:54:41.244Z,27.47
2023-03-01T18:57:09.773Z,31.97
2023-03-01T18:59:37.608Z,35.10
2023-03-01T19:02:05.872Z,36.03
2023-03-01T19:04:33.460Z,105.07
2023-03-01T19:07:02.367Z,37.70
2023-03-01T19:09:30.840Z,40.33
2023-03-01T19:12:02.212Z,37.07
2023-03-01T19:14:30.073Z,24.90
2023-03-01T19:16:57.773Z,21.97
2023-03-01T19:19:25.876Z,21.33
2023-03-01T19:22:05.231Z,25.70
2023-03-01T19:24:33.648Z,26.40
2023-03-01T19:27:01.502Z,17.50
2023-03-01T19:29:29.138Z,16.40
2023-03-01T19:31:57.043Z,17.00
2023-03-01T19:34:25.720Z,19.80
2023-03-01T19:36:54.026Z,19.03
2023-03-01T19:39:21.853Z,22.40
2023-03-01T19:41:50.322Z,18.83
2023-03-01T19:44:19.039Z,19.33
2023-03-01T19:46:46.953Z,17.47
2023-03-01T19:49:14.402Z,18.93
2023-03-01T19:51:42.585Z,23.67
2023-03-01T19:54:11.897Z,19.77
2023-03-01T19:56:41.089Z,22.40
2023-03-01T19:59:09.917Z,24.20
2023-03-01T20:01:43.332Z,24.47
2023-03-01T20:04:13.227Z,24.37
2023-03-01T20:06:41.810Z,25.10
2023-03-01T20:09:20.975Z,27.37
2023-03-01T20:11:50.913Z,26.57
2023-03-01T20:14:21.723Z,27.00
2023-03-01T20:16:52.887Z,25.20
2023-03-01T20:19:22.101Z,26.77
2023-03-01T20:21:50.939Z,25.73
2023-03-01T20:24:18.940Z,27.90
2023-03-01T20:26:47.108Z,27.67
2023-03-01T20:29:15.424Z,28.77
2023-03-01T20:31:44.251Z,29.00
2023-03-01T20:34:23.497Z,33.00
2023-03-01T20:36:55.995Z,32.27
2023-03-01T20:39:25.153Z,28.93
2023-03-01T20:41:53.428Z,29.80
2023-03-01T20:44:21.199Z,30.07
2023-03-01T20:46:51.113Z,29.40
2023-03-01T20:49:18.925Z,32.13
2023-03-01T20:51:48.823Z,34.43
2023-03-01T20:54:17.059Z,34.40
2023-03-01T20:56:45.585Z,38.13
2023-03-01T20:59:13.591Z,36.53
2023-03-01T21:01:41.708Z,37.13
2023-03-01T21:04:10.219Z,39.23
2023-03-01T21:06:39.220Z,42.20
2023-03-01T21:09:07.347Z,43.07
2023-03-01T21:11:35.729Z,42.80
2023-03-01T21:14:05.630Z,47.13
2023-03-01T21:16:35.507Z,46.50
2023-03-01T21:19:06.543Z,53.63
2023-03-01T21:21:34.582Z,52.93
2023-03-01T21:24:02.437Z,52.80
2023-03-01T21:26:31.249Z,53.57
2023-03-01T21:29:04.631Z,61.00
2023-03-01T21:31:36.209Z,64.47
2023-03-01T21:34:06.750Z,60.93
2023-03-01T21:36:36.051Z,58.50
2023-03-01T21:39:07.170Z,51.67
2023-03-01T21:41:37.649Z,48.30
2023-03-01T21:44:07.585Z,45.53
2023-03-01T21:46:39.031Z,43.20
2023-03-01T21:49:09.519Z,36.80
2023-03-01T21:51:37.745Z,37.83
2023-03-01T21:54:06.087Z,33.90
2023-03-01T21:56:39.390Z,33.83
2023-03-01T21:59:12.676Z,33.13
2023-03-01T22:01:40.572Z,30.37
2023-03-01T22:04:08.504Z,30.33
2023-03-01T22:06:41.068Z,28.00
2023-03-01T22:09:21.246Z,27.20
2023-03-01T22:11:54.846Z,27.50
2023-03-01T22:14:22.493Z,25.47
2023-03-01T22:16:51.991Z,28.50
2023-03-01T22:19:20.492Z,28.60
2023-03-01T22:21:52.278Z,29.67
2023-03-01T22:24:22.991Z,30.60
2023-03-01T22:26:52.696Z,48.40
2023-03-01T22:29:27.585Z,51.23
2023-03-01T22:31:57.057Z,35.23
2023-03-01T22:34:25.190Z,34.13
2023-03-01T22:36:53.440Z,34.03
2023-03-01T22:39:21.870Z,35.97
2023-03-01T22:41:50.365Z,40.63
2023-03-01T22:44:24.144Z,38.20
2023-03-01T22:46:52.504Z,34.07
2023-03-01T22:49:20.761Z,31.27
2023-03-01T22:51:49.338Z,30.97
2023-03-01T22:54:18.376Z,28.43
2023-03-01T22:56:46.689Z,26.77
2023-03-01T22:59:16.676Z,26.87
2023-03-01T23:01:46.602Z,28.20
2023-03-01T23:04:16.701Z,27.80
2023-03-01T23:06:50.647Z,25.57
2023-03-01T23:09:22.505Z,31.70
2023-03-01T23:11:51.906Z,35.53
2023-03-01T23:14:21.673Z,43.13
2023-03-01T23:16:50.539Z,46.03
2023-03-01T23:19:19.159Z,49.57
2023-03-01T23:21:50.331Z,51.73
2023-03-01T23:24:20.169Z,51.03
2023-03-01T23:26:55.073Z,54.23
2023-03-01T23:29:22.802Z,62.77
2023-03-01T23:31:51.011Z,75.63
2023-03-01T23:34:19.569Z,86.57
2023-03-01T23:36:47.666Z,86.17
2023-03-01T23:39:14.963Z,73.53
2023-03-01T23:41:42.631Z,80.17
2023-03-01T23:44:17.617Z,79.17
2023-03-01T23:46:47.008Z,82.93
2023-03-01T23:49:17.472Z,76.40
2023-03-01T23:51:47.848Z,70.93
2023-03-01T23:54:21.406Z,67.57
2023-03-01T23:56:49.896Z,65.57
2023-03-01T23:59:20.182Z,63.00
